»·PEaware :: N326MC KHQM-KSEA

N326MC :: KHQM-KSEA

FLIGHT INFORMATION

Flight Status: Arrived
Operator: Privately registered:
United States
More flights under this callsign
Pilot: Anonymous 5456 (5456)
Aircraft: BELL TEXTRON MODEL 412
(B412)
More flights by this aircraft type
Origin: KHQM Bowerman
United States
Destination: KSEA Seattle-Tacoma Intl
United States
More flights between these airports :: More routes between these airports
Route: +OZALU V27 SEA
File this flight plan on PilotEdge
Remarks:
Altitude:
(Current/Filed)
5,000ft
Speed:
(Current/Filed)
100kts
Departed: 13-Nov-17 07:32 PM
Arrived: 13-Nov-17 08:24 PM
Distance/Time
Traveled:
72nm/0:52
Distance/Time
To Go:
Arrived

Flight Plot

Page will automatically refresh every two minutes.

Flight plan parsing failed; only flown route is shown


Map Options




Map Legend


Flown Route
Filed Route
Departure Airport
Arrival Airport
Navaid (VOR, NDB)
Fix

Horizontal Profiles

Position Reports

Time Latitude Longitude Heading Altitude Ground
Speed
13-Nov-17 19:30 46.973384 -123.930171 169 32ft 0kts
13-Nov-17 19:31 46.973384 -123.930171 169 32ft 0kts
13-Nov-17 19:32 46.973384 -123.930171 169 32ft 0kts
13-Nov-17 19:33 46.973384 -123.930171 169 32ft 0kts
13-Nov-17 19:34 46.973384 -123.930171 169 32ft 0kts
13-Nov-17 19:35 46.973384 -123.930171 169 32ft 0kts
13-Nov-17 19:36 46.973384 -123.930171 169 32ft 0kts
13-Nov-17 19:37 46.979191 -123.928687 83 797ft 74kts
13-Nov-17 19:38 46.987599 -123.897244 62 1767ft 100kts
13-Nov-17 19:39 47.002109 -123.861304 54 2014ft 102kts
13-Nov-17 19:40 47.017015 -123.827045 58 2011ft 99kts
13-Nov-17 19:41 47.030939 -123.792844 59 2003ft 98kts
13-Nov-17 19:42 47.044904 -123.759190 60 1969ft 98kts
13-Nov-17 19:43 47.060121 -123.721108 58 1995ft 116kts
13-Nov-17 19:44 47.075575 -123.679839 70 1975ft 116kts
13-Nov-17 19:45 47.087046 -123.636349 69 1980ft 115kts
13-Nov-17 19:46 47.099071 -123.593126 69 1981ft 115kts
13-Nov-17 19:47 47.110564 -123.552292 68 1979ft 115kts
13-Nov-17 19:48 47.122755 -123.508804 69 1976ft 114kts
13-Nov-17 19:49 47.134445 -123.465401 69 1976ft 115kts
13-Nov-17 19:50 47.146137 -123.421977 70 1976ft 115kts
13-Nov-17 19:51 47.157790 -123.378137 69 1964ft 116kts
13-Nov-17 19:52 47.169162 -123.335376 70 1975ft 117kts
13-Nov-17 19:53 47.180819 -123.291586 70 1963ft 115kts
13-Nov-17 19:54 47.192161 -123.248954 70 1974ft 115kts
13-Nov-17 19:55 47.203747 -123.205254 70 1976ft 115kts
13-Nov-17 19:56 47.215219 -123.161931 70 1978ft 114kts
13-Nov-17 19:57 47.226735 -123.118373 70 1975ft 114kts
13-Nov-17 19:58 47.238281 -123.074618 70 1971ft 115kts
13-Nov-17 19:59 47.249767 -123.030995 70 1975ft 115kts
13-Nov-17 20:00 47.261280 -122.987647 72 1978ft 117kts
13-Nov-17 20:01 47.271958 -122.944983 75 1960ft 114kts
13-Nov-17 20:02 47.283179 -122.901557 74 1963ft 114kts
13-Nov-17 20:03 47.294412 -122.858523 74 1970ft 114kts
13-Nov-17 20:04 47.305679 -122.815330 74 1968ft 114kts
13-Nov-17 20:05 47.317588 -122.772494 80 1996ft 118kts
13-Nov-17 20:06 47.329208 -122.728765 82 1990ft 116kts
13-Nov-17 20:07 47.340571 -122.683941 81 2221ft 119kts
13-Nov-17 20:08 47.352004 -122.639528 80 2987ft 118kts
13-Nov-17 20:09 47.363313 -122.597390 81 2969ft 117kts
13-Nov-17 20:10 47.365585 -122.588066 81 2976ft 118kts
13-Nov-17 20:11 47.384797 -122.513439 81 2987ft 118kts
13-Nov-17 20:12 47.396147 -122.469103 81 2982ft 118kts
13-Nov-17 20:13 47.415456 -122.433429 5 2960ft 138kts
13-Nov-17 20:14 47.451656 -122.428737 1 2988ft 132kts
13-Nov-17 20:15 47.487565 -122.426478 356 3018ft 130kts
13-Nov-17 20:16 47.523085 -122.427635 354 3021ft 129kts
13-Nov-17 20:17 47.558991 -122.429804 353 3026ft 129kts
13-Nov-17 20:18 47.594639 -122.431051 16 3032ft 130kts
13-Nov-17 20:19 47.606859 -122.391735 92 3004ft 112kts
13-Nov-17 20:20 47.610919 -122.349987 92 2481ft 90kts
13-Nov-17 20:21 47.603374 -122.322237 145 1989ft 82kts
13-Nov-17 20:22 47.583618 -122.316427 181 2018ft 77kts
13-Nov-17 20:23 47.562806 -122.316940 179 2037ft 75kts
13-Nov-17 20:24 47.540380 -122.317126 179 1932ft 83kts
13-Nov-17 20:25 47.517277 -122.317337 180 1457ft 85kts
13-Nov-17 20:26 47.494416 -122.317533 180 1008ft 85kts
13-Nov-17 20:27 47.471926 -122.317734 180 567ft 82kts
13-Nov-17 20:28 47.454069 -122.317948 187 422ft 46kts
13-Nov-17 20:29 47.443889 -122.317769 175 384ft 29kts
13-Nov-17 20:30 47.439557 -122.315452 105 365ft 4kts

Navigation Log

Ident Type
Flight plan parsing failed, navigation log unavailable